Time;durP1;ratioP1;P1;durP2;ratioP2;P2;SDS_P1;SDS_P2;PMS_P1;PMS_P2;Temp;Humidity;BMP_temperature;BMP_pressure;BME280_temperature;BME280_humidity;BME280_pressure;Samples;Min_cycle;Max_cycle;Signal;HPM_P1;HPM_P2
2022/04/08 00:01:00;;;;;;;2.40;0.80;;;9.10;99.90;;;;;;4997041;28;20837;-76
2022/04/08 00:03:26;;;;;;;3.33;0.80;;;;;;;;;;4996800;28;20174;-75
2022/04/08 00:05:54;;;;;;;7.20;1.30;;;;;;;;;;4984403;28;20500;-81
2022/04/08 00:08:20;;;;;;;5.47;0.93;;;;;;;;;;4996756;28;20963;-81
2022/04/08 00:10:46;;;;;;;2.83;0.83;;;9.10;99.90;;;;;;4996760;28;20409;-81
2022/04/08 00:13:11;;;;;;;5.67;1.00;;;9.80;99.90;;;;;;4993364;28;20459;-81
2022/04/08 00:15:38;;;;;;;2.87;0.80;;;9.00;99.90;;;;;;4996925;28;20181;-81
2022/04/08 00:18:04;;;;;;;2.50;1.10;;;;;;;;;;4996816;28;20181;-81
2022/04/08 00:20:31;;;;;;;8.23;1.40;;;;;;;;;;4996913;28;20496;-76
2022/04/08 00:22:57;;;;;;;1.20;0.60;;;;;;;;;;4996250;28;20958;-76
2022/04/08 00:25:22;;;;;;;2.93;0.97;;;9.00;99.90;;;;;;4996182;28;20508;-76
2022/04/08 00:27:48;;;;;;;10.70;1.53;;;9.00;99.90;;;;;;4996536;28;20424;-76
2022/04/08 00:30:14;;;;;;;3.70;0.90;;;;;;;;;;4996531;28;20221;-76
2022/04/08 00:32:40;;;;;;;2.83;0.80;;;8.90;99.90;;;;;;4995486;28;20637;-76
2022/04/08 00:35:06;;;;;;;4.93;1.00;;;8.90;99.90;;;;;;4996680;28;20424;-76
2022/04/08 00:37:31;;;;;;;8.83;1.03;;;8.90;99.90;;;;;;4995943;28;20181;-76
2022/04/08 00:39:57;;;;;;;4.77;0.67;;;;;;;;;;4996161;28;20863;-76
2022/04/08 00:42:23;;;;;;;4.67;1.30;;;;;;;;;;4996686;28;20201;-76
2022/04/08 00:44:49;;;;;;;2.00;0.63;;;;;;;;;;4995936;28;20779;-76
2022/04/08 00:47:15;;;;;;;55.67;12.93;;;;;;;;;;4996059;28;20416;-76
2022/04/08 00:49:42;;;;;;;6.87;1.17;;;;;;;;;;4983082;28;20401;-77
2022/04/08 00:52:08;;;;;;;12.03;0.80;;;;;;;;;;4996276;28;20409;-76
2022/04/08 00:54:35;;;;;;;2.70;0.93;;;;;;;;;;4989072;28;20602;-77
2022/04/08 00:57:02;;;;;;;4.00;0.80;;;8.80;99.90;;;;;;4990924;28;20425;-76
2022/04/08 00:59:28;;;;;;;5.27;0.83;;;8.80;99.90;;;;;;4983132;28;20405;-76
2022/04/08 01:01:54;;;;;;;4.77;1.13;;;;;;;;;;4995706;28;20425;-76
2022/04/08 01:04:23;;;;;;;2.50;0.97;;;8.80;99.90;;;;;;4995707;28;20405;-76
2022/04/08 01:06:49;;;;;;;5.57;0.93;;;8.80;99.90;;;;;;4983109;28;20414;-76
2022/04/08 01:09:16;;;;;;;7.20;1.23;;;9.30;99.90;;;;;;4988845;28;20416;-76
2022/04/08 01:11:43;;;;;;;2.87;0.93;;;8.70;99.90;;;;;;4989711;28;20409;-77
2022/04/08 01:14:13;;;;;;;1.63;0.70;;;8.90;99.90;;;;;;4999498;28;20475;-76
2022/04/08 01:16:40;;;;;;;4.63;1.03;;;;;;;;;;4995350;28;20425;-75
2022/04/08 01:19:06;;;;;;;12.73;1.50;;;;;;;;;;4995675;28;20416;-76
2022/04/08 01:21:32;;;;;;;3.23;1.10;;;;;;;;;;4995830;28;20792;-78
2022/04/08 01:23:59;;;;;;;8.00;1.20;;;8.80;99.90;;;;;;4995599;28;20531;-77
2022/04/08 01:26:25;;;;;;;13.63;1.80;;;9.50;99.90;;;;;;4995408;28;20516;-76
2022/04/08 01:28:52;;;;;;;2.57;1.07;;;9.50;99.90;;;;;;4995213;28;20519;-76
2022/04/08 01:31:18;;;;;;;5.40;1.00;;;9.00;99.90;;;;;;4995712;28;20455;-76
2022/04/08 01:33:44;;;;;;;7.03;1.00;;;8.90;99.90;;;;;;4995018;28;20896;-76
2022/04/08 01:36:10;;;;;;;5.77;1.50;;;9.10;99.90;;;;;;4995535;28;20655;-76
2022/04/08 01:38:36;;;;;;;2.30;1.00;;;9.30;99.90;;;;;;4995432;28;20417;-76
2022/04/08 01:41:01;;;;;;;6.33;0.70;;;9.00;1.00;;;;;;4995084;28;20205;-77
2022/04/08 01:43:27;;;;;;;2.70;0.70;;;;;;;;;;4994779;28;20186;-76
2022/04/08 01:45:53;;;;;;;4.07;0.80;;;;;;;;;;4995052;28;20181;-76
2022/04/08 01:48:19;;;;;;;1.20;0.80;;;;;;;;;;4994550;28;20412;-76
2022/04/08 01:50:45;;;;;;;1.40;0.90;;;;;;;;;;4995242;28;20420;-81
2022/04/08 01:53:13;;;;;;;3.83;0.80;;;8.60;1.00;;;;;;4995027;28;20543;-81
2022/04/08 01:55:39;;;;;;;1.97;0.70;;;;;;;;;;4994744;28;20924;-81
2022/04/08 01:58:06;;;;;;;1.23;0.70;;;8.40;1.00;;;;;;4994446;28;20790;-81
2022/04/08 02:00:32;;;;;;;1.50;0.70;;;;;;;;;;4994656;28;20433;-82
2022/04/08 02:02:58;;;;;;;1.77;0.60;;;;;;;;;;4986645;28;20861;-82
2022/04/08 02:05:24;;;;;;;5.23;1.07;;;8.20;1.00;;;;;;4994803;28;20464;-81
2022/04/08 02:07:50;;;;;;;1.53;0.70;;;8.20;1.00;;;;;;4994741;28;20423;-82
2022/04/08 02:10:16;;;;;;;1.57;0.90;;;;;;;;;;4994794;28;20218;-82
2022/04/08 02:12:42;;;;;;;1.73;0.70;;;8.10;1.00;;;;;;4996558;28;20943;-81
2022/04/08 02:15:08;;;;;;;1.90;0.63;;;8.50;1.00;;;;;;4994245;28;20512;-82
2022/04/08 02:17:34;;;;;;;1.83;0.70;;;8.10;1.00;;;;;;4994394;28;20432;-82
2022/04/08 02:20:00;;;;;;;1.27;0.70;;;8.10;1.00;;;;;;4994617;28;20421;-81
2022/04/08 02:22:29;;;;;;;1.07;0.90;;;8.10;1.00;;;;;;4994755;28;20181;-77
2022/04/08 02:24:56;;;;;;;2.40;0.90;;;;;;;;;;4993875;28;20433;-77
2022/04/08 02:27:23;;;;;;;3.87;1.07;;;;;;;;;;4994347;28;20433;-77
2022/04/08 02:29:49;;;;;;;2.33;1.03;;;;;;;;;;4993085;28;21015;-77
2022/04/08 02:32:15;;;;;;;6.93;0.70;;;8.00;1.00;;;;;;4994193;28;20412;-77
2022/04/08 02:34:44;;;;;;;11.73;1.33;;;9.10;1.00;;;;;;4993566;28;20511;-77
2022/04/08 02:37:10;;;;;;;2.83;0.83;;;7.90;1.00;;;;;;4994714;28;20240;-77
2022/04/08 02:39:36;;;;;;;4.93;1.00;;;;;;;;;;4994063;28;20424;-77
2022/04/08 02:42:02;;;;;;;1.10;0.60;;;;;;;;;;4994135;28;20625;-77
2022/04/08 02:44:30;;;;;;;1.30;0.70;;;;;;;;;;4992957;28;20428;-77
2022/04/08 02:46:57;;;;;;;0.80;0.50;;;;;;;;;;4992790;28;20428;-77
2022/04/08 02:49:23;;;;;;;0.50;0.50;;;;;;;;;;4993764;28;20394;-77
2022/04/08 02:51:49;;;;;;;1.00;0.70;;;;;;;;;;4994350;28;20421;-77
2022/04/08 02:54:15;;;;;;;0.70;0.70;;;;;;;;;;4993710;28;20496;-77
2022/04/08 02:56:42;;;;;;;0.60;0.60;;;;;;;;;;4993984;28;20433;-77
2022/04/08 02:59:08;;;;;;;0.47;0.47;;;7.10;1.00;;;;;;4993831;28;20409;-77
2022/04/08 03:01:34;;;;;;;0.60;0.60;;;;;;;;;;4993649;28;20470;-77
2022/04/08 03:04:01;;;;;;;1.33;0.77;;;;;;;;;;4992549;28;20436;-79
2022/04/08 03:06:27;;;;;;;1.40;0.80;;;;;;;;;;4993951;28;20786;-82
2022/04/08 03:08:53;;;;;;;0.93;0.70;;;;;;;;;;4993498;28;20915;-82
2022/04/08 03:11:20;;;;;;;1.90;0.87;;;;;;;;;;4993378;28;20413;-82
2022/04/08 03:13:46;;;;;;;0.70;0.70;;;;;;;;;;4993460;28;20555;-82
2022/04/08 03:16:12;;;;;;;0.67;0.67;;;;;;;;;;4993337;28;20456;-82
2022/04/08 03:18:37;;;;;;;2.93;0.70;;;;;;;;;;4993454;28;20759;-82
2022/04/08 03:21:03;;;;;;;1.70;0.60;;;;;;;;;;4992816;28;20433;-77
2022/04/08 03:23:29;;;;;;;0.60;0.60;;;6.90;1.00;;;;;;4993338;28;20471;-77
2022/04/08 03:25:55;;;;;;;0.93;0.67;;;7.00;1.00;;;;;;4993351;28;20436;-79
2022/04/08 03:28:20;;;;;;;3.93;0.80;;;6.90;1.00;;;;;;4993478;28;20232;-79
2022/04/08 03:30:46;;;;;;;1.43;0.73;;;;;;;;;;4993648;28;20189;-77
2022/04/08 03:33:12;;;;;;;1.30;0.90;;;;;;;;;;4993483;28;20716;-76
2022/04/08 03:35:38;;;;;;;0.73;0.73;;;6.90;1.00;;;;;;4993178;28;20432;-77
2022/04/08 03:38:04;;;;;;;1.47;0.70;;;;;;;;;;4993736;28;20916;-82
2022/04/08 03:40:31;;;;;;;0.87;0.60;;;7.00;1.00;;;;;;4993251;28;20244;-82
2022/04/08 03:42:57;;;;;;;1.27;1.00;;;;;;;;;;4993074;28;20927;-82
2022/04/08 03:45:24;;;;;;;0.60;0.60;;;;;;;;;;4993274;28;20425;-82
2022/04/08 03:47:50;;;;;;;1.83;0.87;;;;;;;;;;4993331;28;20412;-82
2022/04/08 03:50:16;;;;;;;3.27;1.00;;;;;;;;;;4993145;28;20404;-82
2022/04/08 03:52:43;;;;;;;0.77;0.70;;;;;;;;;;4993426;28;20766;-77
2022/04/08 03:55:09;;;;;;;0.80;0.80;;;7.00;1.00;;;;;;4993232;28;20428;-78
2022/04/08 03:57:35;;;;;;;3.63;0.73;;;;;;;;;;5007803;28;20433;-77
2022/04/08 04:00:02;;;;;;;0.60;0.60;;;;;;;;;;4993296;28;20761;-78
2022/04/08 04:02:28;;;;;;;0.60;0.60;;;;;;;;;;4991902;28;20425;-77
2022/04/08 04:04:59;;;;;;;0.70;0.70;;;;;;;;;;4993211;28;20451;-79
2022/04/08 04:07:25;;;;;;;1.10;0.80;;;;;;;;;;4993611;28;20581;-82
2022/04/08 04:09:51;;;;;;;0.80;0.80;;;;;;;;;;4993013;28;20920;-82
2022/04/08 04:12:17;;;;;;;1.27;0.90;;;;;;;;;;4995992;28;20455;-81
2022/04/08 04:14:43;;;;;;;3.37;1.00;;;7.00;1.00;;;;;;5000377;28;20468;-83
2022/04/08 04:17:09;;;;;;;0.80;0.80;;;7.00;1.00;;;;;;4993041;28;20425;-82
2022/04/08 04:19:35;;;;;;;0.80;0.80;;;;;;;;;;4993027;28;20186;-82
2022/04/08 04:22:01;;;;;;;0.73;0.70;;;;;;;;;;4995304;28;20423;-77
2022/04/08 04:24:27;;;;;;;2.07;0.90;;;7.10;1.00;;;;;;4996732;28;20416;-77
2022/04/08 04:26:53;;;;;;;1.00;1.00;;;;;;;;;;4996182;28;20428;-77
2022/04/08 04:29:19;;;;;;;1.13;0.90;;;;;;;;;;4996501;28;20425;-77
2022/04/08 04:31:45;;;;;;;1.93;0.70;;;;;;;;;;4997005;28;20896;-78
2022/04/08 04:34:11;;;;;;;3.17;0.80;;;;;;;;;;4996188;28;20459;-78
2022/04/08 04:36:37;;;;;;;1.00;0.87;;;;;;;;;;4996439;28;20424;-81
2022/04/08 04:39:03;;;;;;;1.80;0.93;;;;;;;;;;4996625;28;21002;-82
2022/04/08 04:41:29;;;;;;;1.17;0.70;;;;;;;;;;4996488;28;20420;-82
2022/04/08 04:43:55;;;;;;;0.77;0.70;;;7.00;1.00;;;;;;4995651;28;20421;-82
2022/04/08 04:46:20;;;;;;;1.23;0.87;;;7.00;1.00;;;;;;4995847;28;20475;-82
2022/04/08 04:48:47;;;;;;;2.00;1.10;;;7.10;1.00;;;;;;4996211;28;20185;-82
2022/04/08 04:51:16;;;;;;;1.97;0.70;;;7.10;1.00;;;;;;4996470;28;20204;-82
2022/04/08 04:53:42;;;;;;;1.70;1.00;;;;;;;;;;4996357;28;20479;-82
2022/04/08 04:56:08;;;;;;;0.70;0.70;;;;;;;;;;4996135;28;20409;-82
2022/04/08 04:58:34;;;;;;;0.80;0.80;;;;;;;;;;4995208;28;20421;-82
2022/04/08 05:01:00;;;;;;;0.80;0.77;;;;;;;;;;4994573;28;20464;-82
2022/04/08 05:03:26;;;;;;;2.50;0.80;;;;;;;;;;4996010;28;20421;-82
2022/04/08 05:05:53;;;;;;;2.20;0.70;;;;;;;;;;4996066;28;20480;-82
2022/04/08 05:08:20;;;;;;;1.60;0.80;;;;;;;;;;4995748;28;20572;-82
2022/04/08 05:10:47;;;;;;;1.27;0.90;;;7.40;1.00;;;;;;4983039;28;20768;-82
2022/04/08 05:13:14;;;;;;;1.57;0.83;;;7.30;1.00;;;;;;5006504;28;20463;-82
2022/04/08 05:15:42;;;;;;;2.90;0.87;;;7.40;1.00;;;;;;5010646;28;20461;-79
2022/04/08 05:18:12;;;;;;;0.80;0.80;;;7.40;1.00;;;;;;4995029;28;20568;-80
2022/04/08 05:20:38;;;;;;;3.40;1.23;;;7.80;1.00;;;;;;4995164;28;20842;-79
2022/04/08 05:23:03;;;;;;;1.83;0.80;;;7.40;1.00;;;;;;4996098;28;20455;-73
2022/04/08 05:25:29;;;;;;;1.47;1.00;;;7.40;1.00;;;;;;4994805;28;20775;-73
2022/04/08 05:27:55;;;;;;;3.70;0.90;;;7.40;1.00;;;;;;4995027;28;20200;-73
2022/04/08 05:30:21;;;;;;;1.57;1.20;;;7.40;1.00;;;;;;4995227;28;20185;-73
2022/04/08 05:32:46;;;;;;;1.97;1.20;;;7.50;1.00;;;;;;4994060;28;20178;-73
2022/04/08 05:35:16;;;;;;;1.23;1.13;;;7.60;1.00;;;;;;4995277;28;20577;-73
2022/04/08 05:37:44;;;;;;;1.47;1.03;;;7.50;1.00;;;;;;4995306;28;20429;-79
2022/04/08 05:40:11;;;;;;;1.63;1.00;;;8.10;1.00;;;;;;4995163;28;20492;-80
2022/04/08 05:42:39;;;;;;;0.87;0.80;;;7.60;1.00;;;;;;4994990;28;20420;-79
2022/04/08 05:45:07;;;;;;;4.77;1.10;;;7.70;1.00;;;;;;4995107;28;20966;-79
2022/04/08 05:47:34;;;;;;;1.93;0.93;;;7.70;1.00;;;;;;4994855;28;20475;-78
2022/04/08 05:50:00;;;;;;;4.00;1.00;;;7.80;1.00;;;;;;4994851;28;20417;-78
2022/04/08 05:52:25;;;;;;;1.33;1.03;;;7.80;1.00;;;;;;4995353;28;20420;-73
2022/04/08 05:54:52;;;;;;;2.17;1.03;;;7.80;1.00;;;;;;4994260;28;20464;-73
2022/04/08 05:57:19;;;;;;;4.50;1.00;;;7.90;1.00;;;;;;4994237;28;20221;-73
2022/04/08 05:59:45;;;;;;;0.90;0.87;;;8.20;1.00;;;;;;4994660;28;20425;-73
2022/04/08 06:02:11;;;;;;;2.30;1.00;;;8.20;1.00;;;;;;4994018;28;20490;-73
2022/04/08 06:04:37;;;;;;;4.43;1.00;;;8.30;1.00;;;;;;4994725;28;20512;-73
2022/04/08 06:07:03;;;;;;;1.20;0.90;;;;;;;;;;4994727;28;20186;-73
2022/04/08 06:09:29;;;;;;;0.80;0.80;;;;;;;;;;4994962;28;20178;-78
2022/04/08 06:12:02;;;;;;;1.77;1.13;;;8.60;1.00;;;;;;4994274;28;20452;-83
2022/04/08 06:14:28;;;;;;;3.17;0.97;;;8.60;1.00;;;;;;4992809;28;20469;-83
2022/04/08 06:16:54;;;;;;;1.67;0.93;;;8.70;1.00;;;;;;4994486;28;20904;-83
2022/04/08 06:19:20;;;;;;;1.30;0.80;;;8.70;1.00;;;;;;4994646;28;20558;-82
2022/04/08 06:21:46;;;;;;;1.50;0.90;;;8.80;1.00;;;;;;5009207;28;20633;-82
2022/04/08 06:24:11;;;;;;;3.60;0.80;;;8.80;1.00;;;;;;4994553;28;20433;-83
2022/04/08 06:26:38;;;;;;;1.40;0.80;;;;;;;;;;4994268;28;20181;-83
2022/04/08 06:29:04;;;;;;;8.73;1.40;;;9.10;1.00;;;;;;4993220;28;20185;-83
2022/04/08 06:31:34;;;;;;;2.87;1.00;;;9.10;1.00;;;;;;4994153;28;20507;-83
2022/04/08 06:34:01;;;;;;;1.80;0.80;;;9.30;1.00;;;;;;5009066;28;20469;-83
2022/04/08 06:36:28;;;;;;;1.13;0.80;;;9.50;1.00;;;;;;4993936;28;20432;-83
2022/04/08 06:38:54;;;;;;;2.40;0.90;;;9.60;1.00;;;;;;4994801;28;20487;-83
2022/04/08 06:41:20;;;;;;;3.23;0.90;;;9.80;1.00;;;;;;5009248;28;20448;-83
2022/04/08 06:43:45;;;;;;;0.80;0.80;;;10.40;1.00;;;;;;5008377;28;20456;-83
2022/04/08 06:46:12;;;;;;;7.93;1.30;;;;;;;;;;4993927;28;20425;-83
2022/04/08 06:48:38;;;;;;;9.13;1.00;;;;;;;;;;4993371;28;20178;-82
2022/04/08 06:51:04;;;;;;;3.27;1.20;;;;;;;;;;4993426;28;20514;-83
2022/04/08 06:53:30;;;;;;;2.00;1.37;;;;;;;;;;4993942;28;20458;-82
2022/04/08 06:55:56;;;;;;;3.33;1.13;;;10.00;1.00;;;;;;4993926;28;20432;-83
2022/04/08 06:58:26;;;;;;;2.90;1.07;;;10.10;1.00;;;;;;4993950;28;20904;-82
2022/04/08 07:00:52;;;;;;;4.03;1.10;;;10.20;1.00;;;;;;4993674;28;20177;-83
2022/04/08 07:03:18;;;;;;;5.60;1.40;;;10.30;1.00;;;;;;4993841;28;20436;-82
2022/04/08 07:05:44;;;;;;;4.80;1.73;;;10.20;1.00;;;;;;4993899;28;20426;-83
2022/04/08 07:08:10;;;;;;;11.00;1.67;;;;;;;;;;4994090;28;20205;-83
2022/04/08 07:10:38;;;;;;;10.23;1.77;;;;;;;;;;4993706;28;20421;-83
2022/04/08 07:13:05;;;;;;;9.77;2.00;;;9.90;1.00;;;;;;5002189;28;20423;-83
2022/04/08 07:15:32;;;;;;;3.43;1.40;;;10.20;1.00;;;;;;4993702;28;20421;-83
2022/04/08 07:17:58;;;;;;;3.27;1.60;;;10.40;1.00;;;;;;4994127;28;20748;-83
2022/04/08 07:20:24;;;;;;;7.10;1.67;;;;;;;;;;5008801;28;20436;-78
2022/04/08 07:22:51;;;;;;;6.03;1.80;;;10.70;1.00;;;;;;4993656;28;20186;-83
2022/04/08 07:25:18;;;;;;;7.80;1.67;;;10.30;1.00;;;;;;4993952;28;20412;-77
2022/04/08 07:27:48;;;;;;;6.93;1.47;;;10.30;1.00;;;;;;4993645;28;20444;-77
2022/04/08 07:30:17;;;;;;;16.40;2.20;;;10.10;1.00;;;;;;4993808;28;20388;-77
2022/04/08 07:32:42;;;;;;;7.50;1.60;;;10.10;1.00;;;;;;4993458;28;20413;-77
2022/04/08 07:35:09;;;;;;;8.67;1.80;;;10.00;1.00;;;;;;4993839;28;20524;-77
2022/04/08 07:37:35;;;;;;;13.53;2.30;;;;;;;;;;4993522;28;20539;-77
2022/04/08 07:40:09;;;;;;;7.47;2.20;;;9.90;1.00;;;;;;4993732;28;20387;-83
2022/04/08 07:42:35;;;;;;;6.43;1.47;;;9.70;1.00;;;;;;4993104;28;20845;-83
2022/04/08 07:45:00;;;;;;;7.23;1.80;;;9.90;1.00;;;;;;4993494;28;20434;-83
2022/04/08 07:47:30;;;;;;;9.53;1.73;;;10.60;1.00;;;;;;4993291;28;20908;-82
2022/04/08 07:49:59;;;;;;;7.60;1.40;;;10.50;1.00;;;;;;4993099;28;20423;-85
2022/04/08 07:52:26;;;;;;;8.43;2.10;;;10.40;1.00;;;;;;4986175;28;20432;-83
2022/04/08 07:54:53;;;;;;;8.10;1.37;;;10.40;1.00;;;;;;4993705;28;20471;-78
2022/04/08 07:57:18;;;;;;;7.60;1.60;;;10.80;1.00;;;;;;4995308;28;20942;-77
2022/04/08 07:59:44;;;;;;;7.53;2.20;;;10.40;1.00;;;;;;4997253;28;20415;-78
2022/04/08 08:02:10;;;;;;;6.50;1.63;;;;;;;;;;4996958;28;20573;-78
2022/04/08 08:04:37;;;;;;;3.83;1.90;;;10.60;1.00;;;;;;4996401;28;20252;-78
2022/04/08 08:07:02;;;;;;;8.50;2.00;;;10.60;1.00;;;;;;4997056;28;20420;-77
2022/04/08 08:09:35;;;;;;;9.43;2.00;;;10.70;1.00;;;;;;4997386;28;20927;-83
2022/04/08 08:12:02;;;;;;;4.30;1.63;;;10.80;1.00;;;;;;4997713;28;20429;-83
2022/04/08 08:14:29;;;;;;;9.47;1.53;;;;;;;;;;5001474;28;20456;-83
2022/04/08 08:16:55;;;;;;;14.00;2.00;;;;;;;;;;4996855;28;20414;-83
2022/04/08 08:19:21;;;;;;;5.40;1.40;;;;;;;;;;4995681;28;20452;-83
2022/04/08 08:21:47;;;;;;;6.63;1.70;;;10.50;1.00;;;;;;4996710;28;20757;-83
2022/04/08 08:24:13;;;;;;;8.40;2.03;;;10.20;1.00;;;;;;4996918;28;20904;-77
2022/04/08 08:26:40;;;;;;;12.50;1.97;;;10.20;1.00;;;;;;4995493;28;20433;-77
2022/04/08 08:29:38;;;;;;;5.87;1.60;;;10.20;1.00;;;;;;4996444;28;20192;-79
2022/04/08 08:32:04;;;;;;;16.60;1.87;;;10.20;1.00;;;;;;4994229;28;20446;-76
2022/04/08 08:34:29;;;;;;;12.27;1.70;;;10.20;1.00;;;;;;4995778;28;20559;-78
2022/04/08 08:36:59;;;;;;;8.80;1.90;;;10.00;1.00;;;;;;4992440;28;20400;-76
2022/04/08 08:39:26;;;;;;;11.93;2.00;;;10.00;1.00;;;;;;4992480;28;20220;-76
2022/04/08 08:41:52;;;;;;;10.50;3.00;;;;;;;;;;4989397;28;20407;-76
2022/04/08 08:44:19;;;;;;;6.30;1.87;;;9.70;1.00;;;;;;4994422;28;20523;-76
2022/04/08 08:46:45;;;;;;;7.90;1.67;;;;;;;;;;4995888;28;20431;-77
2022/04/08 08:49:17;;;;;;;6.77;1.63;;;9.50;1.00;;;;;;4995491;28;20440;-77
2022/04/08 08:51:54;;;;;;;8.33;2.20;;;9.60;1.00;;;;;;4996027;28;20413;-77
2022/04/08 08:54:19;;;;;;;5.97;2.37;;;9.70;1.00;;;;;;4988500;28;20471;-82
2022/04/08 08:56:45;;;;;;;8.23;2.53;;;9.70;1.00;;;;;;4995782;28;20422;-81
2022/04/08 08:59:11;;;;;;;6.70;1.60;;;;;;;;;;4995260;28;20251;-81
2022/04/08 09:01:37;;;;;;;8.60;2.23;;;;;;;;;;4995201;28;20354;-78
2022/04/08 09:04:05;;;;;;;8.10;1.33;;;9.70;1.00;;;;;;4993987;28;20947;-71
2022/04/08 09:06:41;;;;;;;8.13;1.73;;;9.40;1.00;;;;;;4995376;28;20443;-71
2022/04/08 09:09:07;;;;;;;8.03;2.40;;;9.50;1.00;;;;;;4994634;28;20426;-71
2022/04/08 09:11:33;;;;;;;11.97;1.90;;;9.40;1.00;;;;;;4995087;28;20436;-71
2022/04/08 09:14:04;;;;;;;6.67;2.27;;;9.40;1.00;;;;;;5004120;28;20465;-71
2022/04/08 09:16:35;;;;;;;8.33;2.10;;;9.60;1.00;;;;;;4994914;28;20433;-70
2022/04/08 09:19:12;;;;;;;10.17;2.17;;;9.60;1.00;;;;;;4995551;28;20428;-71
2022/04/08 09:21:38;;;;;;;10.70;2.10;;;;;;;;;;4995098;28;20424;-72
2022/04/08 09:24:06;;;;;;;7.63;1.73;;;9.70;1.00;;;;;;4995459;28;20769;-72
2022/04/08 09:26:36;;;;;;;10.53;1.57;;;9.50;1.00;;;;;;4993887;28;20433;-80
2022/04/08 09:29:03;;;;;;;8.10;1.50;;;9.50;1.00;;;;;;4993858;28;20831;-77
2022/04/08 09:31:32;;;;;;;7.40;1.80;;;9.50;1.00;;;;;;4994671;28;20440;-75
2022/04/08 09:33:58;;;;;;;4.07;1.37;;;;;;;;;;4993999;28;20787;-77
2022/04/08 09:36:32;;;;;;;8.63;1.83;;;9.60;1.00;;;;;;4995038;28;20420;-78
2022/04/08 09:38:58;;;;;;;4.07;1.60;;;;;;;;;;4986635;28;20442;-78
2022/04/08 09:41:40;;;;;;;8.87;1.97;;;9.50;1.00;;;;;;4994798;28;20504;-77
2022/04/08 09:44:07;;;;;;;4.83;1.87;;;9.50;1.00;;;;;;4991130;28;20407;-77
2022/04/08 09:46:33;;;;;;;6.50;1.83;;;9.50;1.00;;;;;;4994943;28;20434;-77
2022/04/08 09:48:59;;;;;;;9.57;2.13;;;9.50;1.00;;;;;;4994372;28;20438;-77
2022/04/08 09:51:27;;;;;;;6.60;1.77;;;9.60;1.00;;;;;;4995005;28;20640;-77
2022/04/08 09:53:55;;;;;;;12.23;2.43;;;9.70;1.00;;;;;;4993223;28;20468;-78
2022/04/08 09:56:23;;;;;;;7.60;2.47;;;9.60;1.00;;;;;;4995515;28;20887;-86
2022/04/08 09:59:05;;;;;;;8.40;1.70;;;9.60;1.00;;;;;;4995484;28;20407;-84
2022/04/08 10:01:31;;;;;;;10.30;1.87;;;9.60;1.00;;;;;;4995538;28;20511;-85
2022/04/08 10:03:57;;;;;;;5.77;1.70;;;;;;;;;;4995376;28;20464;-86
2022/04/08 10:06:24;;;;;;;16.07;2.73;;;9.70;1.00;;;;;;4995330;28;20391;-86
2022/04/08 10:08:50;;;;;;;7.77;2.47;;;9.70;1.00;;;;;;4993672;28;20439;-86
2022/04/08 10:11:28;;;;;;;10.10;2.23;;;10.00;1.00;;;;;;4993953;28;20511;-78
2022/04/08 10:13:57;;;;;;;13.23;2.40;;;10.10;1.00;;;;;;5000051;28;20465;-79
2022/04/08 10:16:23;;;;;;;9.90;2.63;;;10.20;1.00;;;;;;4994202;28;20432;-79
2022/04/08 10:18:50;;;;;;;4.30;1.97;;;;;;;;;;4994114;28;20421;-79
2022/04/08 10:21:16;;;;;;;6.90;2.37;;;;;;;;;;4992838;28;20736;-78
2022/04/08 10:23:47;;;;;;;6.17;2.10;;;10.10;1.00;;;;;;4993021;28;20505;-78
2022/04/08 10:26:24;;;;;;;6.13;2.17;;;10.10;1.00;;;;;;4994449;28;20440;-82
2022/04/08 10:28:54;;;;;;;8.17;2.47;;;10.00;1.00;;;;;;5009262;28;20844;-83
2022/04/08 10:31:26;;;;;;;7.83;1.93;;;9.90;1.00;;;;;;4993948;28;20433;-83
2022/04/08 10:34:01;;;;;;;6.40;2.13;;;9.90;1.00;;;;;;4994237;28;20432;-82
2022/04/08 10:36:38;;;;;;;9.23;2.07;;;9.80;1.00;;;;;;4994058;28;20942;-81
2022/04/08 10:39:20;;;;;;;10.37;1.90;;;9.80;1.00;;;;;;4994192;28;20420;-81
2022/04/08 10:41:57;;;;;;;4.40;2.10;;;9.80;1.00;;;;;;4994123;28;20880;-78
2022/04/08 10:44:36;;;;;;;5.80;1.80;;;9.60;1.00;;;;;;4992998;28;20462;-77
2022/04/08 10:47:16;;;;;;;8.73;1.90;;;9.70;1.00;;;;;;4993852;28;20852;-79
2022/04/08 10:49:52;;;;;;;4.00;1.33;;;9.60;1.00;;;;;;4993797;28;20450;-79
2022/04/08 10:52:27;;;;;;;9.67;2.33;;;;;;;;;;4993731;28;20931;-78
2022/04/08 10:55:12;;;;;;;8.23;1.83;;;9.50;1.00;;;;;;4993321;28;20442;-77
2022/04/08 10:57:40;;;;;;;5.07;1.43;;;9.10;1.00;;;;;;4991171;28;20924;-84
2022/04/08 11:00:08;;;;;;;6.53;1.57;;;8.80;1.00;;;;;;4994081;28;20417;-87
2022/04/08 11:02:40;;;;;;;4.97;1.70;;;8.70;1.00;;;;;;5009300;28;20488;-85
2022/04/08 11:05:14;;;;;;;5.37;2.20;;;8.80;1.00;;;;;;4992317;28;20487;-82
2022/04/08 11:07:41;;;;;;;9.67;1.90;;;9.00;1.00;;;;;;4993269;28;20433;-83
2022/04/08 11:10:11;;;;;;;4.07;2.20;;;8.80;1.00;;;;;;4992422;28;20433;-84
2022/04/08 11:12:48;;;;;;;14.13;2.00;;;8.60;1.00;;;;;;4995109;28;20440;-84
2022/04/08 11:15:18;;;;;;;3.20;1.43;;;8.60;1.00;;;;;;4993474;28;20460;-85
2022/04/08 11:17:46;;;;;;;4.20;1.57;;;8.60;1.00;;;;;;4993237;28;20421;-81
2022/04/08 11:20:19;;;;;;;3.33;1.30;;;8.60;1.00;;;;;;4993636;28;20400;-80
2022/04/08 11:22:52;;;;;;;3.93;1.30;;;8.40;1.00;;;;;;4993645;28;20413;-81
2022/04/08 11:25:23;;;;;;;3.10;1.30;;;8.50;1.00;;;;;;4993312;28;20444;-81
2022/04/08 11:28:10;;;;;;;8.13;1.83;;;8.60;1.00;;;;;;4993539;28;20508;-81
2022/04/08 11:30:40;;;;;;;4.73;1.50;;;8.70;1.00;;;;;;4992852;28;20425;-81
2022/04/08 11:33:17;;;;;;;4.73;1.13;;;8.70;1.00;;;;;;4993279;28;20452;-81
2022/04/08 11:35:44;;;;;;;5.80;1.40;;;8.60;1.00;;;;;;4993027;28;20829;-81
2022/04/08 11:38:13;;;;;;;4.90;1.27;;;8.60;1.00;;;;;;4992817;28;20428;-80
2022/04/08 11:40:38;;;;;;;4.60;1.40;;;;;;;;;;4993014;28;20456;-83
2022/04/08 11:43:05;;;;;;;3.43;1.70;;;;;;;;;;4993696;28;20405;-79
2022/04/08 11:45:31;;;;;;;1.90;1.07;;;;;;;;;;4992858;28;20991;-79
2022/04/08 11:47:57;;;;;;;3.50;1.47;;;;;;;;;;4992380;28;20503;-81
2022/04/08 11:50:24;;;;;;;5.93;1.30;;;;;;;;;;4992805;28;20444;-81
2022/04/08 11:52:55;;;;;;;3.67;1.30;;;8.80;1.00;;;;;;4992646;28;20475;-80
2022/04/08 11:55:25;;;;;;;3.30;1.40;;;8.80;1.00;;;;;;4989837;28;20456;-80
2022/04/08 11:57:51;;;;;;;5.70;1.47;;;8.80;1.00;;;;;;4993271;28;20915;-80
2022/04/08 12:00:24;;;;;;;1.93;1.30;;;8.70;1.00;;;;;;4993095;28;20428;-80
2022/04/08 12:02:50;;;;;;;1.33;1.17;;;;;;;;;;4993122;28;20424;-81
2022/04/08 12:05:24;;;;;;;3.13;0.80;;;8.80;1.00;;;;;;4992779;28;20479;-81
2022/04/08 12:07:51;;;;;;;2.97;1.30;;;;;;;;;;4993386;28;20416;-81
2022/04/08 12:10:18;;;;;;;2.23;0.90;;;8.80;1.00;;;;;;4993251;28;20745;-80
2022/04/08 12:12:47;;;;;;;2.00;1.00;;;8.60;1.00;;;;;;4994927;28;20432;-78
2022/04/08 12:15:13;;;;;;;3.57;1.20;;;8.70;1.00;;;;;;4992849;28;20440;-78
2022/04/08 12:17:45;;;;;;;1.80;1.10;;;8.80;1.00;;;;;;4992723;28;20931;-78
2022/04/08 12:20:15;;;;;;;1.53;0.90;;;8.80;1.00;;;;;;4993198;28;20390;-78
2022/04/08 12:22:42;;;;;;;1.10;0.90;;;;;;;;;;4992916;28;20412;-78
2022/04/08 12:25:08;;;;;;;1.60;1.30;;;;;;;;;;4992728;28;20463;-77
2022/04/08 12:27:34;;;;;;;4.00;1.20;;;9.20;1.00;;;;;;4993609;28;20478;-79
2022/04/08 12:30:11;;;;;;;1.67;0.90;;;9.10;1.00;;;;;;4992328;28;20456;-78
2022/04/08 12:32:39;;;;;;;1.60;0.90;;;9.10;1.00;;;;;;4992752;28;20418;-78
2022/04/08 12:35:08;;;;;;;1.20;1.00;;;9.10;1.00;;;;;;4992229;28;20449;-78
2022/04/08 12:37:37;;;;;;;1.67;1.00;;;9.20;1.00;;;;;;4992883;28;20771;-77
2022/04/08 12:40:05;;;;;;;4.77;1.43;;;9.20;1.00;;;;;;4992530;28;20428;-77
2022/04/08 12:42:38;;;;;;;1.80;1.17;;;9.10;1.00;;;;;;4994493;28;20413;-77
2022/04/08 12:45:05;;;;;;;3.50;1.27;;;9.10;1.00;;;;;;4996071;28;20542;-77
2022/04/08 12:47:31;;;;;;;0.77;0.77;;;9.10;1.00;;;;;;4996408;28;20455;-77
2022/04/08 12:49:57;;;;;;;1.10;0.97;;;8.70;1.00;;;;;;5010629;28;20452;-77
2022/04/08 12:52:23;;;;;;;1.10;1.00;;;8.70;1.00;;;;;;4996315;28;20172;-77
2022/04/08 12:54:49;;;;;;;4.77;1.67;;;8.70;1.00;;;;;;4995811;28;20185;-77
2022/04/08 12:57:15;;;;;;;3.00;1.00;;;8.70;1.00;;;;;;4996566;28;20421;-77
2022/04/08 12:59:41;;;;;;;2.97;1.10;;;8.70;1.00;;;;;;4993653;28;20425;-77
2022/04/08 13:02:07;;;;;;;2.10;0.87;;;8.80;1.00;;;;;;4986646;28;20507;-77
2022/04/08 13:04:35;;;;;;;2.50;1.00;;;8.60;1.00;;;;;;4995519;28;20563;-78
2022/04/08 13:07:02;;;;;;;0.70;0.60;;;8.70;1.00;;;;;;4995426;28;20417;-78
2022/04/08 13:09:28;;;;;;;2.20;0.93;;;8.80;1.00;;;;;;4995663;28;20421;-76
2022/04/08 13:11:55;;;;;;;2.17;0.73;;;;;;;;;;4995374;28;20447;-76
2022/04/08 13:14:21;;;;;;;0.80;0.80;;;;;;;;;;5004414;28;20240;-86
2022/04/08 13:16:47;;;;;;;1.23;0.70;;;;;;;;;;4995628;28;20417;-82
2022/04/08 13:19:13;;;;;;;1.33;0.97;;;;;;;;;;4989983;28;20428;-84
2022/04/08 13:21:39;;;;;;;1.33;0.90;;;8.90;1.00;;;;;;4995699;28;20551;-81
2022/04/08 13:24:07;;;;;;;1.83;0.90;;;8.80;1.00;;;;;;4995635;28;20543;-82
2022/04/08 13:26:33;;;;;;;0.70;0.70;;;;;;;;;;4995545;28;20421;-82
2022/04/08 13:28:59;;;;;;;0.90;0.80;;;;;;;;;;4995354;28;20919;-82
2022/04/08 13:31:25;;;;;;;1.90;0.87;;;;;;;;;;4995832;28;20411;-81
2022/04/08 13:33:51;;;;;;;0.70;0.60;;;;;;;;;;4994282;28;20840;-82
2022/04/08 13:36:16;;;;;;;2.70;0.73;;;8.60;1.00;;;;;;4995512;28;20471;-77
2022/04/08 13:38:42;;;;;;;0.80;0.80;;;;;;;;;;4994434;28;20439;-81